createdAt,value
2018-12-20T00:01:15.190Z,73.90
2018-12-20T00:03:43.545Z,74.17
2018-12-20T00:06:11.864Z,71.50
2018-12-20T00:08:40.105Z,54.53
2018-12-20T00:11:08.459Z,63.00
2018-12-20T00:13:36.766Z,71.10
2018-12-20T00:16:05.019Z,64.43
2018-12-20T00:18:33.444Z,39.77
2018-12-20T00:21:01.739Z,42.50
2018-12-20T00:23:29.905Z,38.27
2018-12-20T00:25:58.279Z,39.37
2018-12-20T00:28:26.468Z,40.47
2018-12-20T00:30:54.843Z,48.30
2018-12-20T00:33:23.133Z,49.57
2018-12-20T00:35:51.503Z,44.17
2018-12-20T00:38:19.857Z,47.33
2018-12-20T00:40:48.101Z,44.00
2018-12-20T00:43:16.447Z,52.33
2018-12-20T00:45:44.688Z,42.80
2018-12-20T00:48:12.841Z,36.30
2018-12-20T00:50:41.065Z,34.57
2018-12-20T00:53:09.286Z,37.80
2018-12-20T00:55:37.545Z,32.23
2018-12-20T00:58:05.938Z,32.73
2018-12-20T01:00:34.202Z,26.27
2018-12-20T01:03:02.746Z,24.17
2018-12-20T01:05:30.983Z,29.87
2018-12-20T01:07:59.315Z,22.77
2018-12-20T01:10:27.609Z,24.60
2018-12-20T01:12:55.749Z,22.70
2018-12-20T01:15:23.930Z,28.63
2018-12-20T01:17:52.299Z,22.77
2018-12-20T01:20:20.756Z,31.97
2018-12-20T01:22:50.985Z,25.47
2018-12-20T01:25:19.213Z,23.90
2018-12-20T01:27:47.579Z,25.43
2018-12-20T01:30:16.089Z,20.90
2018-12-20T01:32:48.041Z,23.90
2018-12-20T01:35:16.363Z,21.50
2018-12-20T01:37:44.490Z,18.90
2018-12-20T01:40:12.849Z,24.60
2018-12-20T01:42:41.062Z,23.23
2018-12-20T01:45:09.407Z,17.50
2018-12-20T01:47:37.671Z,17.77
2018-12-20T01:50:06.727Z,16.10
2018-12-20T01:52:35.077Z,17.40
2018-12-20T01:55:03.454Z,17.30
2018-12-20T01:57:31.707Z,15.33
2018-12-20T01:59:59.886Z,15.83
2018-12-20T02:02:28.098Z,14.70
2018-12-20T02:04:56.264Z,15.47
2018-12-20T02:07:24.684Z,16.63
2018-12-20T02:09:53.003Z,16.30
2018-12-20T02:12:21.269Z,14.73
2018-12-20T02:14:49.453Z,15.00
2018-12-20T02:17:17.673Z,14.53
2018-12-20T02:19:46.005Z,15.70
2018-12-20T02:22:14.291Z,14.87
2018-12-20T02:24:42.564Z,15.10
2018-12-20T02:27:10.845Z,14.30
2018-12-20T02:29:39.743Z,13.97
2018-12-20T02:32:07.938Z,16.60
2018-12-20T02:34:36.385Z,17.00
2018-12-20T02:37:04.896Z,17.30
2018-12-20T02:39:33.404Z,19.90
2018-12-20T02:42:01.994Z,16.70
2018-12-20T02:44:30.692Z,18.77
2018-12-20T02:46:58.979Z,18.63
2018-12-20T02:49:27.107Z,19.70
2018-12-20T02:51:55.554Z,18.23
2018-12-20T02:54:23.879Z,22.23
2018-12-20T02:56:52.166Z,19.13
2018-12-20T02:59:20.369Z,19.97
2018-12-20T03:01:48.553Z,20.10
2018-12-20T03:04:16.756Z,19.20
2018-12-20T03:06:45.160Z,21.77
2018-12-20T03:09:13.393Z,19.33
2018-12-20T03:11:41.553Z,18.87
2018-12-20T03:14:09.989Z,18.43
2018-12-20T03:16:38.323Z,18.43
2018-12-20T03:19:06.680Z,18.63
2018-12-20T03:21:34.956Z,19.37
2018-12-20T03:24:03.235Z,21.13
2018-12-20T03:26:31.501Z,21.17
2018-12-20T03:28:59.876Z,19.30
2018-12-20T03:31:28.436Z,22.50
2018-12-20T03:33:56.711Z,24.63
2018-12-20T03:36:25.232Z,26.80
2018-12-20T03:38:53.572Z,26.47
2018-12-20T03:41:21.801Z,31.27
2018-12-20T03:43:50.123Z,25.60
2018-12-20T03:46:18.350Z,24.27
2018-12-20T03:48:46.581Z,24.40
2018-12-20T03:51:14.813Z,24.60
2018-12-20T03:53:43.092Z,26.00
2018-12-20T03:56:11.346Z,26.37
2018-12-20T03:58:39.534Z,25.80
2018-12-20T04:01:07.759Z,29.90
2018-12-20T04:03:35.947Z,28.23
2018-12-20T04:06:07.940Z,29.13
2018-12-20T04:08:36.104Z,32.43
2018-12-20T04:11:04.481Z,34.93
2018-12-20T04:13:32.999Z,30.73
2018-12-20T04:16:01.239Z,33.60
2018-12-20T04:18:29.474Z,35.00
2018-12-20T04:20:57.797Z,34.30
2018-12-20T04:23:26.075Z,37.70
2018-12-20T04:25:54.621Z,33.83
2018-12-20T04:28:23.122Z,38.70
2018-12-20T04:30:51.288Z,34.03
2018-12-20T04:33:19.962Z,35.03
2018-12-20T04:38:47.946Z,30.93
2018-12-20T04:41:16.247Z,35.60
2018-12-20T04:43:44.476Z,33.70
2018-12-20T04:46:12.707Z,35.27
2018-12-20T04:48:40.849Z,38.67
2018-12-20T04:51:09.355Z,34.40
2018-12-20T04:53:37.654Z,31.57
2018-12-20T04:56:06.035Z,28.50
2018-12-20T04:58:34.463Z,29.90
2018-12-20T05:01:03.081Z,28.10
2018-12-20T05:03:31.427Z,31.50
2018-12-20T05:06:02.607Z,26.17
2018-12-20T05:08:30.980Z,32.40
2018-12-20T05:11:06.405Z,29.70
2018-12-20T05:13:34.526Z,28.87
2018-12-20T05:16:02.909Z,26.73
2018-12-20T05:18:37.574Z,29.67
2018-12-20T05:21:05.776Z,29.00
2018-12-20T05:23:35.098Z,25.00
2018-12-20T05:26:03.399Z,30.60
2018-12-20T05:28:31.654Z,36.37
2018-12-20T05:30:59.879Z,27.77
2018-12-20T05:33:28.976Z,23.47
2018-12-20T05:35:57.402Z,18.13
2018-12-20T05:38:25.625Z,17.10
2018-12-20T05:40:53.781Z,17.40
2018-12-20T05:43:22.089Z,16.70
2018-12-20T05:45:50.438Z,17.30
2018-12-20T05:48:18.658Z,18.30
2018-12-20T05:50:46.855Z,17.70
2018-12-20T05:53:15.053Z,19.10
2018-12-20T05:55:43.334Z,18.50
2018-12-20T05:58:11.653Z,19.57
2018-12-20T06:00:39.924Z,27.10
2018-12-20T06:03:08.156Z,34.40
2018-12-20T06:05:36.489Z,34.20
2018-12-20T06:08:04.795Z,52.23
2018-12-20T06:10:32.941Z,52.83
2018-12-20T06:13:01.113Z,45.83
2018-12-20T06:15:29.377Z,69.03
2018-12-20T06:17:57.660Z,82.20
2018-12-20T06:20:26.221Z,85.43
2018-12-20T06:22:54.572Z,64.43
2018-12-20T06:25:22.791Z,72.60
2018-12-20T06:27:50.948Z,98.67
2018-12-20T06:30:19.228Z,108.90
2018-12-20T06:32:47.457Z,100.80
2018-12-20T06:35:15.585Z,113.73
2018-12-20T06:37:43.752Z,107.87
2018-12-20T06:40:11.886Z,86.50
2018-12-20T06:42:40.039Z,99.17
2018-12-20T06:45:08.267Z,99.70
2018-12-20T06:47:36.403Z,99.80
2018-12-20T06:50:05.141Z,98.60
2018-12-20T06:52:33.293Z,93.73
2018-12-20T06:55:01.427Z,103.10
2018-12-20T06:57:29.646Z,110.87
2018-12-20T06:59:57.817Z,108.47
2018-12-20T07:02:26.052Z,95.07
2018-12-20T07:04:54.194Z,130.97
2018-12-20T07:07:24.369Z,124.50
2018-12-20T07:09:52.526Z,114.27
2018-12-20T07:12:33.109Z,83.83
2018-12-20T07:15:01.235Z,99.83
2018-12-20T07:17:29.370Z,93.50
2018-12-20T07:19:57.589Z,95.83
2018-12-20T07:22:25.760Z,106.93
2018-12-20T07:24:55.129Z,70.23
2018-12-20T07:27:23.254Z,59.33
2018-12-20T07:29:51.394Z,77.80
2018-12-20T07:32:25.087Z,80.47
2018-12-20T07:34:49.678Z,61.43
2018-12-20T07:37:17.881Z,54.87
2018-12-20T07:39:46.022Z,57.90
2018-12-20T07:42:14.189Z,78.77
2018-12-20T07:44:42.317Z,73.17
2018-12-20T07:47:10.460Z,88.63
2018-12-20T07:49:38.692Z,80.83
2018-12-20T07:52:07.070Z,86.10
2018-12-20T07:54:35.215Z,80.37
2018-12-20T07:57:03.347Z,89.00
2018-12-20T07:59:31.482Z,72.67
2018-12-20T08:01:59.765Z,68.83
2018-12-20T08:04:27.923Z,67.73
2018-12-20T08:06:56.062Z,46.27
2018-12-20T08:09:24.205Z,53.30
2018-12-20T08:11:52.939Z,46.83
2018-12-20T08:14:21.171Z,54.07
2018-12-20T08:16:49.334Z,65.13
2018-12-20T08:19:17.485Z,87.13
2018-12-20T08:21:45.642Z,60.33
2018-12-20T08:24:13.871Z,84.07
2018-12-20T08:26:42.009Z,67.80
2018-12-20T08:29:10.152Z,78.47
2018-12-20T08:31:38.279Z,62.27
2018-12-20T08:34:06.511Z,90.00
2018-12-20T08:36:34.719Z,60.53
2018-12-20T08:39:03.531Z,68.03
2018-12-20T08:41:31.658Z,50.20
2018-12-20T08:43:59.795Z,56.67
2018-12-20T08:46:27.928Z,80.37
2018-12-20T08:48:56.075Z,83.70
2018-12-20T08:51:24.268Z,122.93
2018-12-20T08:53:52.487Z,68.57
2018-12-20T08:56:20.697Z,60.03
2018-12-20T08:58:48.856Z,80.53
2018-12-20T09:01:16.994Z,92.20
2018-12-20T09:03:45.213Z,91.00
2018-12-20T09:06:13.438Z,49.93
2018-12-20T09:08:41.667Z,69.47
2018-12-20T09:11:09.874Z,88.17
2018-12-20T09:13:38.009Z,76.70
2018-12-20T09:16:06.155Z,86.57
2018-12-20T09:18:34.301Z,96.60
2018-12-20T09:21:02.517Z,110.63
2018-12-20T09:23:30.660Z,70.40
2018-12-20T09:25:58.798Z,64.47
2018-12-20T09:28:26.930Z,87.30
2018-12-20T09:30:55.082Z,60.00
2018-12-20T09:33:23.204Z,80.27
2018-12-20T09:35:51.414Z,44.50
2018-12-20T09:38:19.544Z,47.27
2018-12-20T09:40:47.750Z,42.83
2018-12-20T09:43:15.889Z,50.77
2018-12-20T09:45:44.014Z,58.83
2018-12-20T09:48:12.129Z,45.00
2018-12-20T09:50:40.343Z,44.20
2018-12-20T09:53:08.544Z,51.53
2018-12-20T09:55:36.762Z,43.80
2018-12-20T09:58:04.985Z,46.23
2018-12-20T10:00:33.214Z,41.80
2018-12-20T10:03:01.353Z,49.60
2018-12-20T10:05:29.536Z,61.43
2018-12-20T10:07:57.771Z,65.80
2018-12-20T10:10:26.010Z,68.20
2018-12-20T10:12:54.295Z,71.57
2018-12-20T10:15:22.442Z,64.53
2018-12-20T10:17:50.583Z,67.20
2018-12-20T10:20:18.822Z,66.73
2018-12-20T10:22:46.962Z,57.60
2018-12-20T10:25:15.183Z,61.70
2018-12-20T10:27:43.309Z,54.90
2018-12-20T10:30:11.625Z,67.43
2018-12-20T10:32:39.755Z,54.83
2018-12-20T10:35:08.055Z,54.30
2018-12-20T10:37:36.208Z,77.47
2018-12-20T10:40:05.141Z,64.03
2018-12-20T10:42:33.294Z,76.13
2018-12-20T10:45:01.434Z,56.80
2018-12-20T10:47:29.651Z,80.53
2018-12-20T10:49:57.984Z,84.33
2018-12-20T10:52:26.348Z,98.93
2018-12-20T10:54:54.587Z,77.43
2018-12-20T10:57:23.320Z,100.30
2018-12-20T10:59:51.630Z,98.57
2018-12-20T11:02:25.378Z,41.67
2018-12-20T11:04:58.736Z,57.20
2018-12-20T11:08:03.585Z,53.93
2018-12-20T11:10:31.807Z,56.87
2018-12-20T11:13:04.200Z,61.13
2018-12-20T11:15:32.343Z,60.60
2018-12-20T11:18:00.499Z,81.13
2018-12-20T11:20:28.629Z,71.53
2018-12-20T11:22:56.828Z,79.33
2018-12-20T11:25:25.044Z,75.47
2018-12-20T11:27:53.173Z,97.03
2018-12-20T11:30:21.378Z,74.37
2018-12-20T11:32:49.522Z,73.43
2018-12-20T11:35:17.637Z,75.30
2018-12-20T11:37:45.865Z,55.83
2018-12-20T11:40:14.085Z,48.37
2018-12-20T11:42:42.247Z,46.03
2018-12-20T11:45:10.466Z,40.53
2018-12-20T11:47:45.694Z,45.57
2018-12-20T11:50:08.825Z,36.37
2018-12-20T11:52:42.300Z,45.87
2018-12-20T11:55:07.286Z,40.50
2018-12-20T11:57:35.426Z,42.33
2018-12-20T12:00:04.838Z,38.20
2018-12-20T12:02:33.026Z,39.87
2018-12-20T12:05:01.149Z,35.70
2018-12-20T12:07:29.942Z,40.50
2018-12-20T12:09:58.082Z,43.93
2018-12-20T12:12:26.225Z,45.00
2018-12-20T12:14:54.422Z,45.57
2018-12-20T12:17:22.569Z,39.00
2018-12-20T12:19:50.786Z,40.47
2018-12-20T12:22:18.986Z,44.87
2018-12-20T12:24:50.534Z,37.20
2018-12-20T12:27:18.700Z,38.03
2018-12-20T12:29:46.868Z,40.00
2018-12-20T12:32:15.004Z,34.93
2018-12-20T12:34:43.138Z,39.13
2018-12-20T12:37:11.339Z,37.60
2018-12-20T12:39:39.481Z,40.40
2018-12-20T12:42:07.798Z,39.87
2018-12-20T12:44:35.945Z,44.00
2018-12-20T12:47:06.579Z,45.23
2018-12-20T12:49:34.737Z,40.20
2018-12-20T12:52:02.980Z,41.83
2018-12-20T12:54:31.127Z,42.53
2018-12-20T12:56:59.773Z,44.40
2018-12-20T12:59:28.075Z,38.90
2018-12-20T13:02:01.927Z,39.37
2018-12-20T13:04:30.086Z,37.10
2018-12-20T13:07:01.723Z,34.10
2018-12-20T13:09:29.878Z,35.07
2018-12-20T13:11:58.026Z,40.50
2018-12-20T13:14:26.174Z,34.40
2018-12-20T13:16:54.391Z,34.47
2018-12-20T13:19:22.527Z,38.30
2018-12-20T13:21:50.653Z,34.23
2018-12-20T13:24:18.812Z,33.40
2018-12-20T13:26:47.030Z,37.37
2018-12-20T13:29:15.317Z,39.33
2018-12-20T13:31:43.483Z,38.90
2018-12-20T13:34:11.717Z,35.13
2018-12-20T13:36:39.947Z,35.20
2018-12-20T13:39:08.215Z,33.80
2018-12-20T13:41:36.349Z,28.93
2018-12-20T13:44:04.662Z,32.43
2018-12-20T13:46:32.863Z,32.97
2018-12-20T13:49:00.990Z,31.03
2018-12-20T13:51:29.121Z,32.40
2018-12-20T13:53:57.276Z,26.93
2018-12-20T13:56:25.490Z,30.03
2018-12-20T13:58:53.742Z,29.77
2018-12-20T14:01:21.899Z,28.30
2018-12-20T14:03:50.043Z,26.80
2018-12-20T14:06:18.202Z,27.63
2018-12-20T14:08:46.426Z,28.43
2018-12-20T14:11:14.649Z,26.07
2018-12-20T14:13:42.840Z,26.67
2018-12-20T14:16:10.996Z,24.83
2018-12-20T14:18:39.144Z,27.17
2018-12-20T14:21:07.402Z,26.50
2018-12-20T14:23:35.637Z,28.93
2018-12-20T14:26:03.961Z,25.37
2018-12-20T14:28:32.119Z,22.37
2018-12-20T14:31:00.371Z,23.90
2018-12-20T14:33:28.518Z,20.60
2018-12-20T14:35:56.659Z,21.30
2018-12-20T14:38:24.877Z,21.50
2018-12-20T14:40:55.101Z,20.87
2018-12-20T14:43:23.361Z,20.33
2018-12-20T14:45:51.577Z,19.77
2018-12-20T14:48:25.287Z,18.63
2018-12-20T14:50:53.467Z,18.97
2018-12-20T14:53:21.614Z,18.03
2018-12-20T14:55:49.926Z,16.90
2018-12-20T14:58:18.071Z,18.17
2018-12-20T15:00:46.368Z,17.93
2018-12-20T15:03:14.642Z,18.23
2018-12-20T15:05:42.874Z,19.00
2018-12-20T15:08:11.026Z,18.80
2018-12-20T15:10:39.183Z,18.83
2018-12-20T15:13:07.321Z,18.30
2018-12-20T15:15:35.478Z,17.47
2018-12-20T15:18:03.681Z,19.73
2018-12-20T15:20:40.287Z,16.87
2018-12-20T15:23:02.047Z,16.83
2018-12-20T15:25:30.274Z,15.07
2018-12-20T15:27:58.406Z,15.00
2018-12-20T15:30:26.553Z,16.37
2018-12-20T15:32:54.772Z,15.90
2018-12-20T15:35:22.953Z,17.10
2018-12-20T15:37:51.187Z,20.00
2018-12-20T15:40:19.330Z,19.83
2018-12-20T15:42:47.482Z,17.80
2018-12-20T15:45:15.722Z,19.60
2018-12-20T15:47:43.982Z,18.77
2018-12-20T15:50:12.309Z,20.23
2018-12-20T15:52:40.635Z,19.00
2018-12-20T15:55:08.868Z,20.20
2018-12-20T15:57:37.028Z,19.63
2018-12-20T16:00:06.921Z,19.30
2018-12-20T16:02:35.151Z,19.17
2018-12-20T16:05:03.446Z,19.20
2018-12-20T16:07:31.628Z,19.07
2018-12-20T16:09:59.962Z,19.83
2018-12-20T16:12:28.328Z,17.60
2018-12-20T16:14:56.460Z,19.10
2018-12-20T16:17:25.642Z,19.80
2018-12-20T16:19:53.781Z,18.33
2018-12-20T16:22:21.961Z,18.73
2018-12-20T16:24:50.093Z,17.50
2018-12-20T16:27:18.343Z,18.73
2018-12-20T16:29:46.583Z,20.30
2018-12-20T16:32:14.755Z,18.07
2018-12-20T16:34:42.893Z,19.43
2018-12-20T16:37:11.044Z,19.13
2018-12-20T16:39:39.274Z,18.17
2018-12-20T16:42:07.437Z,19.13
2018-12-20T16:44:35.636Z,18.27
2018-12-20T16:47:03.917Z,18.57
2018-12-20T16:49:32.071Z,18.80
2018-12-20T16:52:00.297Z,19.70
2018-12-20T16:54:28.520Z,19.20
2018-12-20T16:56:56.854Z,18.53
2018-12-20T16:59:25.095Z,18.30
2018-12-20T17:01:53.246Z,16.73
2018-12-20T17:04:21.433Z,16.30
2018-12-20T17:06:49.731Z,16.50
2018-12-20T17:09:18.028Z,17.47
2018-12-20T17:11:46.237Z,18.37
2018-12-20T17:14:17.847Z,16.40
2018-12-20T17:16:45.993Z,15.37
2018-12-20T17:22:13.604Z,17.77
2018-12-20T17:24:47.447Z,17.20
2018-12-20T17:27:15.626Z,17.23
2018-12-20T17:29:43.765Z,17.80
2018-12-20T17:35:11.225Z,17.90
2018-12-20T17:37:39.619Z,16.70
2018-12-20T17:40:08.026Z,17.63
2018-12-20T17:42:36.187Z,16.07
2018-12-20T17:45:05.703Z,15.80
2018-12-20T17:47:33.965Z,14.80
2018-12-20T17:50:02.190Z,15.80
2018-12-20T17:52:30.318Z,15.63
2018-12-20T17:55:01.946Z,14.70
2018-12-20T17:57:30.164Z,14.80
2018-12-20T17:59:58.378Z,14.07
2018-12-20T18:02:26.685Z,12.90
2018-12-20T18:04:54.850Z,13.33
2018-12-20T18:07:22.998Z,11.73
2018-12-20T18:09:51.234Z,12.37
2018-12-20T18:12:19.686Z,11.60
2018-12-20T18:14:47.826Z,12.20
2018-12-20T18:17:16.068Z,12.13
2018-12-20T18:19:44.229Z,12.17
2018-12-20T18:22:12.362Z,12.87
2018-12-20T18:24:40.525Z,12.13
2018-12-20T18:27:08.769Z,13.10
2018-12-20T18:29:36.991Z,11.27
2018-12-20T18:32:05.211Z,12.93
2018-12-20T18:34:33.379Z,10.70
2018-12-20T18:37:01.523Z,10.90
2018-12-20T18:39:29.686Z,11.10
2018-12-20T18:42:12.061Z,11.00
2018-12-20T18:44:58.926Z,10.70
2018-12-20T18:47:27.157Z,9.90
2018-12-20T18:49:55.337Z,10.10
2018-12-20T18:52:23.470Z,9.93
2018-12-20T18:54:59.567Z,9.30
2018-12-20T18:57:27.718Z,10.07
2018-12-20T18:59:55.869Z,7.77
2018-12-20T19:02:24.016Z,8.30
2018-12-20T19:04:52.278Z,10.20
2018-12-20T19:07:20.418Z,9.93
2018-12-20T19:09:48.564Z,9.90
2018-12-20T19:12:16.702Z,9.20
2018-12-20T19:14:44.884Z,9.10
2018-12-20T19:17:13.019Z,11.17
2018-12-20T19:19:41.167Z,9.20
2018-12-20T19:22:09.307Z,11.30
2018-12-20T19:24:37.598Z,11.23
2018-12-20T19:27:05.800Z,11.27
2018-12-20T19:29:33.931Z,12.03
2018-12-20T19:32:02.162Z,12.57
2018-12-20T19:34:30.285Z,10.40
2018-12-20T19:36:58.444Z,10.30
2018-12-20T19:39:27.855Z,10.73
2018-12-20T19:42:01.355Z,11.20
2018-12-20T19:44:30.278Z,11.40
2018-12-20T19:46:58.491Z,13.00
2018-12-20T19:49:26.621Z,13.53
2018-12-20T19:51:54.833Z,13.77
2018-12-20T19:54:23.072Z,15.33
2018-12-20T19:56:51.290Z,15.97
2018-12-20T19:59:19.613Z,16.40
2018-12-20T20:01:47.751Z,16.63
2018-12-20T20:04:20.381Z,16.73
2018-12-20T20:06:48.537Z,19.37
2018-12-20T20:09:16.751Z,19.10
2018-12-20T20:11:44.995Z,17.30
2018-12-20T20:14:13.141Z,20.43
2018-12-20T20:16:41.370Z,19.00
2018-12-20T20:19:09.512Z,22.13
2018-12-20T20:21:37.653Z,18.40
2018-12-20T20:24:06.295Z,18.97
2018-12-20T20:26:34.526Z,17.07
2018-12-20T20:29:02.661Z,18.70
2018-12-20T20:31:30.810Z,23.70
2018-12-20T20:33:59.015Z,19.30
2018-12-20T20:36:27.162Z,19.93
2018-12-20T20:39:01.983Z,19.30
2018-12-20T20:41:25.502Z,19.27
2018-12-20T20:43:55.668Z,23.03
2018-12-20T20:46:23.911Z,19.50
2018-12-20T20:48:52.105Z,20.13
2018-12-20T20:51:20.264Z,20.17
2018-12-20T20:53:48.484Z,19.30
2018-12-20T20:56:16.685Z,18.40
2018-12-20T20:58:44.909Z,21.80
2018-12-20T21:01:13.067Z,21.73
2018-12-20T21:03:41.235Z,21.90
2018-12-20T21:06:09.514Z,22.40
2018-12-20T21:08:37.727Z,23.83
2018-12-20T21:11:05.930Z,22.10
2018-12-20T21:13:34.062Z,23.17
2018-12-20T21:16:02.233Z,23.50
2018-12-20T21:18:30.369Z,22.00
2018-12-20T21:20:58.609Z,23.40
2018-12-20T21:23:26.942Z,21.50
2018-12-20T21:25:55.073Z,18.90
2018-12-20T21:28:23.287Z,20.80
2018-12-20T21:30:51.422Z,22.33
2018-12-20T21:33:19.555Z,24.37
2018-12-20T21:35:47.691Z,21.07
2018-12-20T21:38:15.897Z,21.87
2018-12-20T21:40:44.097Z,20.90
2018-12-20T21:43:12.247Z,19.37
2018-12-20T21:45:40.442Z,21.50
2018-12-20T21:48:08.659Z,21.53
2018-12-20T21:50:39.107Z,19.93
2018-12-20T21:53:06.945Z,20.47
2018-12-20T21:55:35.079Z,22.17
2018-12-20T21:58:03.314Z,17.80
2018-12-20T22:00:31.434Z,20.53
2018-12-20T22:02:59.642Z,20.70
2018-12-20T22:05:28.859Z,20.23
2018-12-20T22:07:57.019Z,19.13
2018-12-20T22:10:25.161Z,20.80
2018-12-20T22:12:53.405Z,18.27
2018-12-20T22:15:21.540Z,19.30
2018-12-20T22:17:49.689Z,19.17
2018-12-20T22:20:17.813Z,21.33
2018-12-20T22:22:45.958Z,18.63
2018-12-20T22:25:14.098Z,18.90
2018-12-20T22:27:42.309Z,16.60
2018-12-20T22:30:11.450Z,15.33
2018-12-20T22:32:39.657Z,15.23
2018-12-20T22:35:07.869Z,14.70
2018-12-20T22:37:35.987Z,15.97
2018-12-20T22:40:05.447Z,16.30
2018-12-20T22:42:33.659Z,14.97
2018-12-20T22:45:01.963Z,14.27
2018-12-20T22:47:30.092Z,14.63
2018-12-20T22:49:58.241Z,16.67
2018-12-20T22:52:26.353Z,15.80
2018-12-20T22:54:54.485Z,15.80
2018-12-20T22:57:22.608Z,16.93
2018-12-20T22:59:50.814Z,18.50
2018-12-20T23:02:19.007Z,19.57
2018-12-20T23:04:47.151Z,16.83
2018-12-20T23:07:15.289Z,17.47
2018-12-20T23:09:44.203Z,20.00
2018-12-20T23:12:13.133Z,18.97
2018-12-20T23:14:41.271Z,17.93
2018-12-20T23:17:09.396Z,20.83
2018-12-20T23:19:37.605Z,17.53
2018-12-20T23:22:05.893Z,18.10
2018-12-20T23:24:34.040Z,16.83
2018-12-20T23:27:02.271Z,20.20
2018-12-20T23:29:30.506Z,20.30
2018-12-20T23:31:58.652Z,19.90
2018-12-20T23:34:26.790Z,17.70
2018-12-20T23:36:55.000Z,18.90
2018-12-20T23:39:23.142Z,15.30
2018-12-20T23:41:51.284Z,19.03
2018-12-20T23:44:19.435Z,19.60
2018-12-20T23:46:47.567Z,19.03
2018-12-20T23:49:15.787Z,17.20
2018-12-20T23:51:45.364Z,18.53
2018-12-20T23:54:13.941Z,17.83
2018-12-20T23:56:42.069Z,20.63
2018-12-20T23:59:10.330Z,18.50
